Time;durP1;ratioP1;P1;durP2;ratioP2;P2;SDS_P1;SDS_P2;PMS_P1;PMS_P2;Temp;Humidity;BMP_temperature;BMP_pressure;BME280_temperature;BME280_humidity;BME280_pressure;Samples;Min_cycle;Max_cycle;Signal;HPM_P1;HPM_P2
2020/12/13 00:01:55;;;;;;;71.93;24.95;;;3.80;99.90;;;4.64;88.91;100247.63;5072099;28;20254;-69
2020/12/13 00:04:21;;;;;;;73.80;24.60;;;3.80;99.90;;;4.65;88.98;100251.97;5071996;28;20196;-69
2020/12/13 00:06:48;;;;;;;66.80;23.60;;;3.90;99.90;;;4.66;88.72;100253.66;5070731;28;20192;-69
2020/12/13 00:09:14;;;;;;;75.65;25.50;;;3.90;99.90;;;4.64;88.81;100255.41;5072781;28;20683;-69
2020/12/13 00:11:40;;;;;;;69.45;23.83;;;3.90;99.90;;;4.67;88.63;100251.91;5088230;28;20245;-69
2020/12/13 00:14:06;;;;;;;70.07;24.52;;;3.90;99.90;;;4.68;88.87;100259.66;5070127;28;20192;-69
2020/12/13 00:16:33;;;;;;;73.85;24.02;;;3.90;99.90;;;4.71;89.08;100253.53;5069888;28;20207;-70
2020/12/13 00:19:00;;;;;;;77.10;24.33;;;3.90;99.90;;;4.72;88.81;100256.09;5069714;28;20184;-69
2020/12/13 00:21:26;;;;;;;76.38;25.13;;;3.90;99.90;;;4.74;88.45;100266.41;5071190;28;20204;-69
2020/12/13 00:23:54;;;;;;;79.60;25.77;;;3.90;99.90;;;4.69;88.64;100261.34;5071532;28;20739;-69
2020/12/13 00:26:21;;;;;;;79.30;24.48;;;3.90;99.90;;;4.64;88.51;100263.19;5072313;28;20211;-69
2020/12/13 00:28:47;;;;;;;73.70;24.83;;;3.80;99.90;;;4.62;88.92;100270.13;5071204;28;20207;-69
2020/12/13 00:31:15;;;;;;;72.55;24.50;;;3.80;99.90;;;4.63;89.16;100266.66;5071966;28;20219;-69
2020/12/13 00:33:43;;;;;;;81.70;26.13;;;3.80;99.90;;;4.68;88.87;100270.00;5071626;28;20188;-70
2020/12/13 00:36:10;;;;;;;76.20;24.90;;;3.80;99.90;;;4.67;88.76;100273.47;5070969;28;20193;-69
2020/12/13 00:38:36;;;;;;;77.45;26.75;;;3.80;99.90;;;4.64;89.02;100273.53;5070685;28;20184;-70
2020/12/13 00:41:03;;;;;;;74.65;23.67;;;3.80;99.90;;;4.65;88.85;100277.88;5069285;28;20219;-70
2020/12/13 00:43:29;;;;;;;68.70;23.02;;;3.80;99.90;;;4.64;88.72;100277.88;5069250;28;20188;-69
2020/12/13 00:45:55;;;;;;;77.25;25.40;;;3.80;99.90;;;4.62;88.91;100277.06;5073644;28;20185;-70
2020/12/13 00:48:21;;;;;;;73.53;24.02;;;3.80;99.90;;;4.61;89.05;100280.53;5074319;28;20195;-70
2020/12/13 00:50:48;;;;;;;81.82;25.05;;;3.80;99.90;;;4.60;89.29;100292.66;5074078;28;20208;-70
2020/12/13 00:53:15;;;;;;;75.85;24.95;;;3.80;99.90;;;4.59;88.89;100290.91;5073677;28;20238;-70
2020/12/13 00:55:41;;;;;;;73.82;24.17;;;3.80;99.90;;;4.57;89.02;100291.84;5073078;28;20192;-69
2020/12/13 00:58:13;;;;;;;73.97;25.98;;;3.70;99.90;;;4.57;88.91;100295.28;5073074;28;20184;-69
2020/12/13 01:00:39;;;;;;;73.20;24.83;;;3.70;99.90;;;4.58;89.21;100299.59;5090690;28;20216;-69
2020/12/13 01:03:05;;;;;;;74.63;25.93;;;3.70;99.90;;;4.59;88.89;100296.09;5074578;28;20188;-69
2020/12/13 01:05:32;;;;;;;67.45;24.80;;;3.70;99.90;;;4.61;89.20;100303.84;5074024;28;20188;-70
2020/12/13 01:07:58;;;;;;;84.88;26.33;;;3.70;99.90;;;4.61;88.85;100303.84;5074068;28;20192;-69
2020/12/13 01:10:25;;;;;;;84.47;26.35;;;3.70;99.90;;;4.63;88.78;100308.13;5089842;28;20300;-69
2020/12/13 01:12:51;;;;;;;82.13;27.30;;;3.80;99.90;;;4.66;89.05;100307.19;5074299;28;20730;-69
2020/12/13 01:15:18;;;;;;;91.15;27.48;;;3.80;99.90;;;4.66;88.99;100305.47;5074057;28;20180;-69
2020/12/13 01:17:46;;;;;;;76.72;25.15;;;3.80;99.90;;;4.67;89.06;100303.72;5075058;28;20192;-69
2020/12/13 01:20:13;;;;;;;88.78;26.83;;;3.80;99.90;;;4.67;88.87;100306.31;5089118;28;20208;-69
2020/12/13 01:22:40;;;;;;;97.15;30.83;;;3.80;99.90;;;4.64;88.91;100306.34;5073707;28;20189;-69
2020/12/13 01:25:08;;;;;;;92.97;28.27;;;3.80;99.90;;;4.62;89.19;100315.94;5073661;28;20620;-69
2020/12/13 01:27:36;;;;;;;77.13;25.75;;;3.80;99.90;;;4.60;89.20;100322.88;5072576;28;20188;-69
2020/12/13 01:30:06;;;;;;;79.28;25.63;;;3.80;99.90;;;4.58;88.82;100319.44;5072085;28;20208;-69
2020/12/13 01:32:37;;;;;;;75.35;25.40;;;3.80;99.90;;;4.60;89.08;100317.69;5074074;28;20192;-69
2020/12/13 01:35:06;;;;;;;86.00;25.38;;;3.80;99.90;;;4.61;88.80;100321.97;5073658;28;20216;-70
2020/12/13 01:37:32;;;;;;;89.55;27.58;;;3.80;99.90;;;4.63;89.35;100322.81;5073788;28;20191;-70
2020/12/13 01:39:58;;;;;;;74.17;26.10;;;3.80;99.90;;;4.63;88.99;100328.84;5073120;28;20238;-69
2020/12/13 01:42:24;;;;;;;70.85;24.25;;;3.80;99.90;;;4.63;89.22;100331.44;5072177;28;20259;-70
2020/12/13 01:44:52;;;;;;;71.70;25.13;;;3.80;99.90;;;4.62;89.09;100329.72;5073263;28;20184;-69
2020/12/13 01:47:19;;;;;;;80.95;27.02;;;3.80;99.90;;;4.62;89.12;100334.06;5073416;28;20203;-70
2020/12/13 01:49:48;;;;;;;76.55;24.67;;;3.80;99.90;;;4.60;89.07;100334.09;5088799;28;20242;-69
2020/12/13 01:55:06;;;;;;;75.38;24.80;;;3.80;99.90;;;4.56;88.83;100329.84;5071509;28;20234;-69
2020/12/13 01:57:36;;;;;;;75.28;23.80;;;3.80;99.90;;;4.60;88.74;100338.41;5070942;28;20214;-69
2020/12/13 02:00:09;;;;;;;81.78;26.88;;;3.80;99.90;;;4.63;88.79;100338.34;5072878;28;20283;-70
2020/12/13 02:02:43;;;;;;;75.18;25.67;;;3.80;99.90;;;4.62;88.89;100341.84;5089019;28;20299;-69
2020/12/13 02:05:12;;;;;;;71.45;23.63;;;3.80;99.90;;;4.61;88.49;100340.09;5074158;28;20184;-69
2020/12/13 02:07:40;;;;;;;74.55;23.40;;;3.80;99.90;;;4.58;88.78;100343.63;5077959;28;20184;-69
2020/12/13 02:10:10;;;;;;;83.53;23.98;;;3.80;99.90;;;4.60;88.70;100339.28;5075716;28;20757;-70
2020/12/13 02:12:37;;;;;;;70.20;23.35;;;3.80;99.90;;;4.63;88.85;100341.81;5072170;28;20249;-71
2020/12/13 02:15:06;;;;;;;65.43;24.13;;;3.90;99.90;;;4.68;88.93;100342.56;5072780;28;20242;-70
2020/12/13 02:17:35;;;;;;;71.20;24.25;;;3.90;99.90;;;4.70;88.69;100350.31;5072803;28;20551;-70
2020/12/13 02:20:07;;;;;;;69.80;25.15;;;3.90;99.90;;;4.67;88.48;100351.19;5071081;28;20188;-70
2020/12/13 02:22:38;;;;;;;72.97;23.73;;;3.90;99.90;;;4.66;88.40;100346.91;5072945;28;20199;-69
2020/12/13 02:25:12;;;;;;;90.82;28.30;;;3.90;99.90;;;4.68;88.48;100347.75;5072552;28;20202;-70
2020/12/13 02:27:39;;;;;;;72.53;23.58;;;3.90;99.90;;;4.67;88.48;100348.59;5088260;28;20221;-69
2020/12/13 02:30:08;;;;;;;80.45;25.20;;;3.90;99.90;;;4.71;88.63;100342.50;5071600;28;20235;-70
2020/12/13 02:32:35;;;;;;;72.72;24.20;;;3.90;99.90;;;4.73;88.54;100345.06;5072464;28;20241;-70
2020/12/13 02:35:01;;;;;;;75.60;24.90;;;4.00;99.90;;;4.72;88.51;100344.19;5072216;28;20192;-70
2020/12/13 02:37:28;;;;;;;76.90;24.38;;;4.00;99.90;;;4.73;88.55;100351.09;5071878;28;20870;-69
2020/12/13 02:39:55;;;;;;;76.32;23.38;;;4.00;99.90;;;4.73;88.86;100351.09;5071957;28;20183;-70
2020/12/13 02:42:21;;;;;;;76.97;24.03;;;4.00;99.90;;;4.73;88.82;100351.09;5072411;28;20188;-70
2020/12/13 02:44:48;;;;;;;75.28;23.70;;;4.00;99.90;;;4.72;88.50;100338.19;5072119;28;20683;-69
2020/12/13 02:47:14;;;;;;;72.32;24.63;;;4.00;99.90;;;4.76;88.71;100351.03;5072190;28;20210;-70
2020/12/13 02:49:42;;;;;;;77.43;25.38;;;4.00;99.90;;;4.79;88.82;100355.28;5072257;28;20184;-70
2020/12/13 02:52:08;;;;;;;72.90;23.35;;;4.10;99.90;;;4.74;88.37;100352.78;5071831;28;20226;-70
2020/12/13 02:54:34;;;;;;;69.53;24.80;;;4.00;99.90;;;4.69;88.61;100357.22;5071334;28;20184;-70
2020/12/13 02:57:02;;;;;;;72.30;23.97;;;4.00;99.90;;;4.68;89.02;100354.66;5071679;28;20184;-69
2020/12/13 02:59:28;;;;;;;78.53;23.55;;;4.00;99.90;;;4.67;89.20;100351.19;5071659;28;20188;-69
2020/12/13 03:01:54;;;;;;;86.23;24.90;;;4.00;99.90;;;4.70;89.02;100364.13;5071857;28;20200;-69
2020/12/13 03:04:20;;;;;;;63.38;23.20;;;4.00;99.90;;;4.76;89.24;100363.13;5071868;28;20188;-69
2020/12/13 03:06:47;;;;;;;70.43;23.55;;;4.00;99.90;;;4.72;89.05;100359.72;5071660;28;20720;-69
2020/12/13 03:09:13;;;;;;;71.57;23.37;;;4.00;99.90;;;4.73;89.06;100366.66;5071216;28;20185;-69
2020/12/13 03:11:39;;;;;;;69.22;23.25;;;4.00;99.90;;;4.73;88.96;100360.59;5071550;28;20226;-69
2020/12/13 03:14:06;;;;;;;71.57;23.03;;;4.10;99.90;;;4.73;89.25;100371.81;5071399;28;20656;-70
2020/12/13 03:16:33;;;;;;;65.60;24.27;;;4.00;99.90;;;4.73;88.98;100374.41;5087046;28;20633;-70
2020/12/13 03:18:59;;;;;;;71.88;25.15;;;4.00;99.90;;;4.76;89.04;100376.94;5071353;28;20191;-70
2020/12/13 03:21:25;;;;;;;67.43;23.03;;;4.10;99.90;;;4.82;89.11;100381.16;5069294;28;20293;-70
2020/12/13 03:23:51;;;;;;;74.50;24.05;;;4.10;99.90;;;4.79;88.55;100381.19;5071266;28;20592;-69
2020/12/13 03:26:18;;;;;;;72.07;22.27;;;4.10;99.90;;;4.76;88.69;100382.13;5071239;28;20184;-70
2020/12/13 03:28:44;;;;;;;74.28;24.25;;;4.10;99.90;;;4.77;88.90;100373.44;5070652;28;20196;-69
2020/12/13 03:31:11;;;;;;;65.22;23.00;;;4.10;99.90;;;4.79;88.78;100379.47;5070184;28;20219;-69
2020/12/13 03:33:37;;;;;;;71.88;23.65;;;4.10;99.90;;;4.80;88.62;100373.41;5071043;28;20207;-70
2020/12/13 03:36:04;;;;;;;66.50;22.98;;;4.10;99.90;;;4.85;88.75;100381.09;5071115;28;20302;-69
2020/12/13 03:38:30;;;;;;;65.82;23.75;;;4.20;99.90;;;4.89;88.72;100391.34;5070930;28;20192;-69
2020/12/13 03:40:56;;;;;;;65.70;22.42;;;4.20;99.90;;;4.94;88.07;100386.06;5071007;28;20212;-70
2020/12/13 03:43:22;;;;;;;71.60;23.83;;;4.20;99.90;;;4.92;88.20;100388.69;5070941;28;20207;-69
2020/12/13 03:45:48;;;;;;;69.38;22.23;;;4.20;99.90;;;4.93;88.00;100390.44;5072265;28;20188;-69
2020/12/13 03:48:15;;;;;;;65.28;23.42;;;4.20;99.90;;;4.96;87.99;100389.50;5071449;28;20210;-70
2020/12/13 03:50:42;;;;;;;68.30;23.58;;;4.20;99.90;;;4.97;88.06;100386.88;5071180;28;20645;-69
2020/12/13 03:53:10;;;;;;;69.00;23.30;;;4.20;99.90;;;5.00;87.80;100392.00;5071299;28;20191;-69
2020/12/13 03:55:37;;;;;;;63.58;23.55;;;4.20;99.90;;;4.96;87.71;100392.09;5070400;28;20199;-70
2020/12/13 03:58:04;;;;;;;66.20;22.65;;;4.20;99.90;;;4.93;87.62;100395.59;5069400;28;20180;-69
2020/12/13 04:00:31;;;;;;;79.90;24.60;;;4.20;99.90;;;4.94;87.89;100397.31;5071227;28;20207;-69
2020/12/13 04:02:59;;;;;;;71.07;23.15;;;4.20;99.90;;;4.94;87.70;100404.22;5071039;28;20183;-69
2020/12/13 04:05:26;;;;;;;70.73;23.47;;;4.20;99.90;;;4.93;87.77;100402.53;5071155;28;20216;-69
2020/12/13 04:07:53;;;;;;;68.65;24.38;;;4.20;99.90;;;4.91;87.77;100404.28;5071053;28;20553;-72
2020/12/13 04:10:20;;;;;;;74.93;25.08;;;4.10;99.90;;;4.92;87.90;100406.00;5070527;28;20212;-69
2020/12/13 04:12:47;;;;;;;65.88;23.65;;;4.20;99.90;;;4.97;87.87;100406.78;5070271;28;20176;-70
2020/12/13 04:15:14;;;;;;;78.82;26.88;;;4.20;99.90;;;4.99;87.98;100408.44;5070686;28;20180;-70
2020/12/13 04:17:40;;;;;;;69.65;23.90;;;4.20;99.90;;;5.01;87.84;100408.41;5071180;28;20195;-70
2020/12/13 04:20:08;;;;;;;75.63;25.48;;;4.20;99.90;;;5.01;87.58;100404.06;5072575;28;20207;-69
2020/12/13 04:22:35;;;;;;;68.90;23.67;;;4.20;99.90;;;5.01;87.65;100409.25;5073952;28;20188;-70
2020/12/13 04:25:01;;;;;;;78.40;25.08;;;4.20;99.90;;;5.00;87.79;100407.56;5074859;28;20190;-69
2020/12/13 04:27:27;;;;;;;78.50;26.70;;;4.20;99.90;;;4.97;87.62;100417.16;5075042;28;20192;-69
2020/12/13 04:29:54;;;;;;;75.05;24.58;;;4.20;99.90;;;4.92;87.77;100413.78;5073527;28;20184;-70
2020/12/13 04:32:21;;;;;;;87.97;26.67;;;4.10;99.90;;;4.89;87.81;100425.06;5074162;28;20226;-69
2020/12/13 04:34:47;;;;;;;79.65;25.33;;;4.10;99.90;;;4.89;87.92;100430.22;5073319;28;20675;-69
2020/12/13 04:37:14;;;;;;;85.40;25.73;;;4.10;99.90;;;4.92;87.81;100432.75;5073467;28;20184;-72
2020/12/13 04:39:41;;;;;;;87.55;27.30;;;4.10;99.90;;;4.92;87.99;100435.34;5074524;28;20572;-69
2020/12/13 04:42:07;;;;;;;86.75;27.63;;;4.10;99.90;;;4.94;88.21;100438.78;5074536;28;20355;-69
2020/12/13 04:44:34;;;;;;;81.03;25.52;;;4.10;99.90;;;4.96;88.26;100439.59;5073234;28;20195;-70
2020/12/13 04:47:05;;;;;;;84.38;25.33;;;4.20;99.90;;;4.96;88.28;100444.78;5074198;28;20184;-70
2020/12/13 04:49:32;;;;;;;88.05;27.35;;;4.20;99.90;;;4.96;88.36;100442.19;5074203;28;20727;-69
2020/12/13 04:52:01;;;;;;;79.13;25.67;;;4.20;99.90;;;4.95;88.24;100443.09;5074372;28;20220;-70
2020/12/13 04:54:29;;;;;;;87.78;26.80;;;4.20;99.90;;;4.90;87.84;100442.34;5074368;28;20184;-69
2020/12/13 04:56:59;;;;;;;81.95;25.58;;;4.20;99.90;;;4.87;88.07;100441.53;5072230;28;20663;-70
2020/12/13 04:59:26;;;;;;;87.18;26.92;;;4.10;99.90;;;4.85;88.11;100443.28;5076795;28;20188;-69
2020/12/13 05:01:53;;;;;;;86.32;25.67;;;4.10;99.90;;;4.80;88.18;100440.78;5077190;28;20308;-69
2020/12/13 05:04:20;;;;;;;87.00;25.33;;;4.10;99.90;;;4.77;88.43;100448.59;5080682;28;20606;-69
2020/12/13 05:06:47;;;;;;;79.13;25.65;;;4.00;99.90;;;4.76;88.67;100448.63;5073351;28;20188;-70
2020/12/13 05:09:15;;;;;;;83.80;25.20;;;4.00;99.90;;;4.82;88.82;100443.34;5074142;28;20203;-70
2020/12/13 05:11:43;;;;;;;89.60;26.15;;;4.00;99.90;;;4.88;88.86;100449.28;5072599;28;20223;-70
2020/12/13 05:14:11;;;;;;;87.88;27.23;;;4.00;99.90;;;4.91;88.50;100448.34;5072917;28;20188;-70
2020/12/13 05:16:38;;;;;;;81.35;25.50;;;4.00;99.90;;;4.90;88.59;100446.66;5073628;28;20198;-70
2020/12/13 05:19:06;;;;;;;77.22;25.98;;;4.00;99.90;;;4.89;88.95;100445.78;5089170;28;20538;-70
2020/12/13 05:21:34;;;;;;;89.60;27.30;;;4.00;99.90;;;4.90;88.81;100442.34;5073002;28;20257;-70
2020/12/13 05:24:03;;;;;;;81.38;25.63;;;4.00;99.90;;;4.91;88.68;100448.34;5073614;28;20192;-70
2020/12/13 05:26:30;;;;;;;89.68;27.05;;;4.10;99.90;;;4.92;88.94;100450.06;5072456;28;20183;-69
2020/12/13 05:28:59;;;;;;;86.38;27.05;;;4.10;99.90;;;4.92;88.67;100456.09;5072877;28;20668;-69
2020/12/13 05:31:28;;;;;;;89.53;26.15;;;4.10;99.90;;;4.91;88.61;100464.75;5072098;28;20710;-70
2020/12/13 05:34:00;;;;;;;83.68;25.73;;;4.10;99.90;;;4.91;88.48;100469.09;5072577;28;20274;-70
2020/12/13 05:36:28;;;;;;;88.65;26.55;;;4.10;99.90;;;4.89;88.68;100470.84;5072166;28;20207;-69
2020/12/13 05:38:59;;;;;;;104.88;28.23;;;4.10;99.90;;;4.89;88.80;100469.13;5073165;28;20498;-70
2020/12/13 05:41:29;;;;;;;88.60;26.88;;;4.10;99.90;;;4.90;88.85;100467.38;5073258;28;20212;-70
2020/12/13 05:44:03;;;;;;;94.15;28.73;;;4.10;99.90;;;4.90;88.57;100473.44;5089206;28;20207;-70
2020/12/13 05:46:55;;;;;;;80.20;25.13;;;4.10;99.90;;;4.88;88.50;100466.56;5071889;28;20364;-69
2020/12/13 05:49:36;;;;;;;87.75;25.88;;;4.10;99.90;;;4.88;88.72;100474.34;5072794;28;20730;-70
2020/12/13 05:52:04;;;;;;;83.97;25.52;;;4.10;99.90;;;4.89;88.67;100474.28;5073215;28;20216;-69
2020/12/13 05:54:30;;;;;;;83.28;24.95;;;4.10;99.90;;;4.88;88.72;100469.16;5073292;28;20188;-69
2020/12/13 05:56:59;;;;;;;93.57;26.52;;;4.10;99.90;;;4.86;88.43;100471.78;5072527;28;20192;-69
2020/12/13 05:59:28;;;;;;;81.88;24.98;;;4.10;99.90;;;4.86;88.73;100470.91;5071419;28;20192;-69
2020/12/13 06:01:58;;;;;;;87.03;25.38;;;4.10;99.90;;;4.86;88.62;100476.94;5073059;28;20204;-70
2020/12/13 06:04:27;;;;;;;94.85;26.95;;;4.00;99.90;;;4.86;88.55;100471.78;5073518;28;20192;-69
2020/12/13 06:06:56;;;;;;;84.53;26.13;;;4.00;99.90;;;4.85;88.44;100480.44;5088618;28;20200;-70
2020/12/13 06:09:32;;;;;;;82.97;27.13;;;4.00;99.90;;;4.84;88.55;100486.47;5071663;28;20188;-70
2020/12/13 06:12:03;;;;;;;93.45;26.42;;;4.00;99.90;;;4.82;88.71;100490.84;5072930;28;20733;-70
2020/12/13 06:14:29;;;;;;;90.55;27.33;;;4.00;99.90;;;4.82;88.66;100497.78;5072935;28;20192;-70
2020/12/13 06:17:00;;;;;;;86.35;26.02;;;4.10;99.90;;;4.83;88.86;100497.75;5088395;28;20189;-70
2020/12/13 06:19:30;;;;;;;84.95;26.30;;;4.00;99.90;;;4.82;88.49;100497.78;5072368;28;20661;-69
2020/12/13 06:21:58;;;;;;;82.68;24.45;;;4.10;99.90;;;4.79;88.73;100506.44;5071456;28;20219;-70
2020/12/13 06:24:25;;;;;;;72.75;24.00;;;4.00;99.90;;;4.77;88.82;100508.19;5072683;28;20600;-69
2020/12/13 06:26:53;;;;;;;79.85;25.48;;;4.00;99.90;;;4.74;88.76;100503.09;5072390;28;20195;-69
2020/12/13 06:29:21;;;;;;;92.55;25.42;;;4.00;99.90;;;4.75;88.67;100504.81;5072239;28;20494;-70
2020/12/13 06:31:49;;;;;;;68.78;22.33;;;4.00;99.90;;;4.74;88.48;100494.44;5072489;28;20215;-70
2020/12/13 06:34:17;;;;;;;80.97;24.75;;;4.00;99.90;;;4.72;88.49;100494.47;5071517;28;20187;-70
2020/12/13 06:36:46;;;;;;;75.88;24.10;;;3.90;99.90;;;4.70;88.63;100496.25;5072136;28;20219;-69
2020/12/13 06:39:15;;;;;;;67.93;22.40;;;3.90;99.90;;;4.69;88.41;100494.53;5087932;28;20199;-70
2020/12/13 06:41:44;;;;;;;68.50;23.77;;;3.90;99.90;;;4.72;88.75;100499.66;5087767;28;20223;-70
2020/12/13 06:44:12;;;;;;;67.82;23.00;;;3.90;99.90;;;4.74;88.51;100508.25;5071979;28;20226;-70
2020/12/13 06:46:41;;;;;;;78.22;23.80;;;4.00;99.90;;;4.74;89.00;100513.44;5072042;28;20219;-69
2020/12/13 06:49:09;;;;;;;79.13;23.88;;;3.90;99.90;;;4.74;88.70;100525.53;5070504;28;20887;-69
2020/12/13 06:51:38;;;;;;;87.10;25.38;;;3.90;99.90;;;4.74;88.75;100523.81;5071533;28;20677;-69
2020/12/13 06:54:07;;;;;;;81.03;25.02;;;4.00;99.90;;;4.74;88.51;100538.50;5070652;28;20204;-70
2020/12/13 06:56:35;;;;;;;76.25;24.02;;;4.00;99.90;;;4.66;88.65;100543.81;5071328;28;20196;-70
2020/12/13 06:59:04;;;;;;;84.55;24.80;;;4.00;99.90;;;4.63;88.82;100546.47;5071626;28;20675;-69
2020/12/13 07:01:33;;;;;;;74.07;23.10;;;4.00;99.90;;;4.65;89.10;100539.53;5071931;28;20275;-70
2020/12/13 07:04:25;;;;;;;75.57;23.65;;;3.90;99.90;;;4.67;89.15;100536.91;5070698;28;20196;-70
2020/12/13 07:06:57;;;;;;;66.30;22.10;;;4.00;99.90;;;4.68;88.92;100549.84;5071702;28;20203;-69
2020/12/13 07:09:24;;;;;;;73.47;24.00;;;4.00;99.90;;;4.69;89.24;100550.66;5087149;28;20192;-70
2020/12/13 07:11:52;;;;;;;75.22;23.45;;;4.00;99.90;;;4.68;88.60;100555.03;5087297;28;20583;-70
2020/12/13 07:14:24;;;;;;;74.28;22.65;;;4.00;99.90;;;4.70;88.77;100557.59;5071885;28;20237;-69
2020/12/13 07:17:00;;;;;;;84.30;26.08;;;4.00;99.90;;;4.78;89.26;100561.75;5073144;28;20238;-70
2020/12/13 07:19:31;;;;;;;84.75;25.67;;;4.10;99.90;;;4.81;89.05;100566.88;5070106;28;20625;-70
2020/12/13 07:22:06;;;;;;;81.82;25.75;;;4.10;99.90;;;4.80;89.05;100560.00;5087018;28;20223;-70
2020/12/13 07:24:32;;;;;;;87.13;24.52;;;4.20;99.90;;;4.82;88.92;100565.16;5071300;28;20179;-69
2020/12/13 07:27:00;;;;;;;67.72;25.55;;;4.20;99.90;;;4.83;88.99;100570.31;5071238;28;20180;-70
2020/12/13 07:29:28;;;;;;;82.13;27.10;;;4.20;99.90;;;4.85;88.74;100573.75;5070663;28;20257;-70
2020/12/13 07:31:55;;;;;;;68.70;25.15;;;4.20;99.90;;;4.85;88.45;100578.94;5071243;28;20230;-69
2020/12/13 07:34:22;;;;;;;74.85;26.63;;;4.20;99.90;;;4.87;88.51;100576.31;5071289;28;20188;-69
2020/12/13 07:36:48;;;;;;;77.95;24.17;;;4.20;99.90;;;4.88;88.49;100576.28;5085601;28;20570;-70
2020/12/13 07:39:15;;;;;;;68.00;23.08;;;4.20;99.90;;;4.87;88.34;100579.72;5070971;28;20610;-69
2020/12/13 07:41:43;;;;;;;72.03;25.35;;;4.20;99.90;;;4.87;88.10;100581.50;5071013;28;20207;-69
2020/12/13 07:44:12;;;;;;;64.85;23.30;;;4.20;99.90;;;4.87;88.10;100581.50;5070897;28;20192;-69
2020/12/13 07:46:41;;;;;;;65.43;21.80;;;4.20;99.90;;;4.88;87.94;100586.66;5069910;28;20200;-70
2020/12/13 07:49:10;;;;;;;66.47;22.38;;;4.20;99.90;;;4.91;87.72;100593.50;5071443;28;20521;-69
2020/12/13 07:51:39;;;;;;;59.83;22.92;;;4.20;99.90;;;4.91;87.95;100602.13;5071518;28;20211;-69
2020/12/13 07:54:18;;;;;;;64.93;22.60;;;4.20;99.90;;;4.91;87.91;100609.03;5073095;28;20557;-69
2020/12/13 07:56:51;;;;;;;65.85;22.38;;;4.20;99.90;;;4.92;87.51;100614.22;5071039;28;20267;-69
2020/12/13 07:59:19;;;;;;;60.83;22.33;;;4.20;99.90;;;4.92;87.83;100605.59;5070586;28;20191;-70
2020/12/13 08:01:48;;;;;;;72.93;23.50;;;4.20;99.90;;;4.92;87.76;100609.03;5069701;28;20223;-69
2020/12/13 08:04:15;;;;;;;59.45;23.45;;;4.20;99.90;;;4.91;87.35;100604.72;5086415;28;20192;-70
2020/12/13 08:06:42;;;;;;;71.75;23.50;;;4.20;99.90;;;4.89;87.63;100609.06;5071057;28;20195;-70
2020/12/13 08:09:11;;;;;;;62.42;23.92;;;4.20;99.90;;;4.90;87.54;100612.53;5086623;28;20192;-70
2020/12/13 08:11:41;;;;;;;71.05;23.20;;;4.20;99.90;;;4.92;87.68;100610.78;5070857;28;20230;-70
2020/12/13 08:14:08;;;;;;;64.10;24.23;;;4.20;99.90;;;4.95;87.49;100611.59;5070746;28;20199;-70
2020/12/13 08:16:35;;;;;;;68.20;23.02;;;4.20;99.90;;;4.96;87.53;100618.47;5070838;28;20188;-69
2020/12/13 08:19:13;;;;;;;63.00;22.80;;;4.20;99.90;;;4.96;87.44;100631.44;5070774;28;20649;-70
2020/12/13 08:21:50;;;;;;;57.17;20.92;;;4.20;99.90;;;4.97;87.43;100633.13;5086081;28;20219;-70
2020/12/13 08:24:19;;;;;;;73.70;22.98;;;4.20;99.90;;;4.98;86.92;100641.78;5070997;28;20679;-70
2020/12/13 08:26:49;;;;;;;60.92;22.40;;;4.30;99.90;;;4.98;87.15;100650.41;5070634;28;20196;-70
2020/12/13 08:29:16;;;;;;;64.03;21.73;;;4.20;99.90;;;4.96;87.20;100649.56;5070150;28;20192;-70
2020/12/13 08:31:43;;;;;;;58.40;21.40;;;4.20;99.90;;;4.95;87.26;100660.84;5069144;28;20231;-70
2020/12/13 08:34:09;;;;;;;70.55;22.55;;;4.20;99.90;;;4.93;86.89;100654.81;5070702;28;20188;-70
2020/12/13 08:36:36;;;;;;;66.50;21.23;;;4.20;99.90;;;4.93;86.95;100657.41;5070755;28;20239;-69
2020/12/13 08:39:10;;;;;;;59.50;22.58;;;4.20;99.90;;;4.94;87.05;100659.09;5084677;28;20672;-69
2020/12/13 08:41:44;;;;;;;59.17;22.10;;;4.20;99.90;;;4.96;86.85;100651.31;5070309;28;20208;-70
2020/12/13 08:44:30;;;;;;;63.10;21.30;;;4.20;99.90;;;4.96;86.70;100656.50;5069337;28;20231;-70
2020/12/13 08:46:59;;;;;;;62.13;21.73;;;4.20;99.90;;;4.97;86.83;100659.06;5070761;28;20211;-70
2020/12/13 08:49:28;;;;;;;65.95;21.67;;;4.20;99.90;;;4.99;86.84;100662.50;5070230;28;20557;-70
2020/12/13 08:51:55;;;;;;;61.10;22.02;;;4.20;99.90;;;5.02;86.72;100671.97;5070182;28;20212;-69
2020/12/13 08:54:21;;;;;;;65.57;22.92;;;4.30;99.90;;;5.03;86.69;100671.94;5070556;28;20188;-69
2020/12/13 08:56:53;;;;;;;67.32;22.75;;;4.30;99.90;;;5.05;86.80;100680.56;5071009;28;20191;-70
2020/12/13 08:59:22;;;;;;;58.17;21.58;;;4.40;99.90;;;5.07;86.73;100686.53;5070934;28;20195;-69
2020/12/13 09:01:57;;;;;;;69.22;22.17;;;4.40;99.90;;;5.10;86.71;100685.66;5070147;28;20219;-70
2020/12/13 09:04:28;;;;;;;64.63;21.63;;;4.40;99.90;;;5.17;86.46;100689.00;5070287;28;20666;-70
2020/12/13 09:06:56;;;;;;;56.15;20.95;;;4.50;99.90;;;5.12;86.41;100679.56;5073125;28;20241;-69
2020/12/13 09:09:29;;;;;;;65.28;22.60;;;4.40;99.90;;;5.08;86.35;100684.81;5066203;28;20192;-69
2020/12/13 09:11:55;;;;;;;59.00;20.83;;;4.40;99.90;;;5.08;86.50;100675.31;5073999;28;20204;-70
2020/12/13 09:14:27;;;;;;;58.40;21.27;;;4.40;99.90;;;5.10;86.50;100673.56;5072822;28;20192;-67
2020/12/13 09:16:55;;;;;;;59.83;22.10;;;4.50;99.90;;;5.10;86.40;100683.06;5074002;28;20188;-69
2020/12/13 09:19:21;;;;;;;62.97;22.05;;;4.50;99.90;;;5.12;86.37;100695.09;5073917;28;20188;-69
2020/12/13 09:21:54;;;;;;;69.03;23.58;;;4.50;99.90;;;5.12;86.42;100692.50;5073589;28;20708;-70
2020/12/13 09:24:23;;;;;;;56.22;22.27;;;4.50;99.90;;;5.14;86.13;100701.13;5073821;28;20184;-70
2020/12/13 09:27:07;;;;;;;64.18;22.02;;;4.50;99.90;;;5.17;85.98;100709.75;5073902;28;20188;-70
2020/12/13 09:29:37;;;;;;;60.78;21.10;;;4.50;99.90;;;5.18;86.06;100701.94;5073325;28;20195;-70
2020/12/13 09:32:07;;;;;;;63.17;22.83;;;4.50;99.90;;;5.17;86.35;100704.56;5073629;28;20212;-69
2020/12/13 09:34:33;;;;;;;57.60;22.70;;;4.50;99.90;;;5.18;86.20;100712.31;5072651;28;20188;-70
2020/12/13 09:36:59;;;;;;;58.53;21.85;;;4.60;99.90;;;5.18;85.62;100706.25;5072025;28;20192;-70
2020/12/13 09:39:26;;;;;;;62.05;21.67;;;4.60;99.90;;;5.18;85.98;100708.84;5073121;28;20241;-70
2020/12/13 09:41:54;;;;;;;64.38;22.80;;;4.60;99.90;;;5.17;86.08;100714.94;5073645;28;20578;-70
2020/12/13 09:44:20;;;;;;;63.17;22.75;;;4.60;99.90;;;5.19;85.88;100708.88;5073856;28;20187;-70
2020/12/13 09:46:47;;;;;;;65.13;23.98;;;4.60;99.90;;;5.22;85.85;100707.94;5073366;28;20531;-70
2020/12/13 09:49:15;;;;;;;63.65;23.13;;;4.60;99.90;;;5.23;85.89;100701.84;5073210;28;20180;-69
2020/12/13 09:51:41;;;;;;;63.08;23.88;;;4.60;99.90;;;5.25;85.89;100702.69;5073701;28;20211;-69
2020/12/13 09:54:07;;;;;;;63.13;22.17;;;4.60;99.90;;;5.25;85.68;100698.38;5073450;28;20184;-69
2020/12/13 09:56:34;;;;;;;57.40;22.60;;;4.60;99.90;;;5.32;85.84;100701.72;5073191;28;20604;-70
2020/12/13 09:59:00;;;;;;;58.83;22.42;;;4.70;99.90;;;5.37;85.54;100702.50;5088509;28;20203;-69
2020/12/13 10:01:26;;;;;;;63.58;21.02;;;4.70;99.90;;;5.39;85.60;100700.75;5072451;28;20219;-70
2020/12/13 10:03:54;;;;;;;56.17;20.95;;;4.70;99.90;;;5.43;85.50;100702.38;5073388;28;20184;-70
2020/12/13 10:06:32;;;;;;;53.35;21.05;;;4.80;99.90;;;5.51;85.79;100696.19;5072972;28;20184;-70
2020/12/13 10:09:07;;;;;;;60.88;23.45;;;4.90;99.90;;;5.60;85.43;100698.63;5072686;28;20196;-69
2020/12/13 10:11:35;;;;;;;58.58;20.92;;;5.00;99.90;;;5.60;85.03;100701.22;5088699;28;20302;-70
2020/12/13 10:14:02;;;;;;;60.28;21.83;;;5.00;99.90;;;5.60;84.58;100700.34;5088223;28;20184;-69
2020/12/13 10:16:29;;;;;;;49.22;19.25;;;5.00;99.90;;;5.61;84.55;100702.09;5072883;28;20184;-69
2020/12/13 10:18:56;;;;;;;52.60;20.48;;;5.00;99.90;;;5.60;84.24;100698.63;5072179;28;20195;-70
2020/12/13 10:21:25;;;;;;;50.00;19.83;;;5.00;99.90;;;5.60;84.59;100689.97;5073037;28;20228;-70